Time;durP1;ratioP1;P1;durP2;ratioP2;P2;SDS_P1;SDS_P2;PMS_P1;PMS_P2;Temp;Humidity;BMP_temperature;BMP_pressure;BME280_temperature;BME280_humidity;BME280_pressure;Samples;Min_cycle;Max_cycle;Signal;HPM_P1;HPM_P2
2020/12/01 00:00:22;;;;;;;7.83;5.57;;;;;;;;;;5089620;28;20024;-55
2020/12/01 00:02:48;;;;;;;7.57;6.13;;;;;;;;;;5091511;28;20031;-52
2020/12/01 00:05:14;;;;;;;9.33;6.67;;;;;;;;;;5082748;28;20493;-53
2020/12/01 00:07:39;;;;;;;8.93;7.20;;;;;;;;;;5091309;28;20099;-53
2020/12/01 00:10:05;;;;;;;8.57;6.60;;;;;;;;;;5091584;28;20016;-56
2020/12/01 00:12:30;;;;;;;8.07;5.93;;;;;;;;;;5095453;28;20116;-55
2020/12/01 00:14:55;;;;;;;9.37;6.30;;;;;;;;;;5095519;28;20573;-57
2020/12/01 00:17:21;;;;;;;7.13;5.30;;;;;;;;;;5095284;28;20125;-55
2020/12/01 00:19:46;;;;;;;8.90;6.10;;;;;;;;;;5092442;28;20031;-55
2020/12/01 00:22:12;;;;;;;9.17;6.40;;;;;;;;;;5093469;28;20138;-56
2020/12/01 00:24:38;;;;;;;9.33;6.90;;;;;;;;;;5094648;28;20023;-51
2020/12/01 00:27:03;;;;;;;9.87;7.50;;;;;;;;;;5094629;28;20386;-56
2020/12/01 00:29:28;;;;;;;12.00;9.07;;;;;;;;;;5092020;28;20020;-54
2020/12/01 00:31:54;;;;;;;12.13;7.87;;;;;;;;;;5094839;28;20031;-53
2020/12/01 00:34:19;;;;;;;10.70;9.60;;;;;;;;;;5094972;28;20031;-56
2020/12/01 00:36:44;;;;;;;12.60;11.30;;;;;;;;;;5095076;28;20032;-54
2020/12/01 00:39:10;;;;;;;13.30;9.07;;;;;;;;;;5089907;28;20374;-56
2020/12/01 00:41:35;;;;;;;12.27;10.77;;;;;;;;;;5094673;28;20493;-52
2020/12/01 00:44:01;;;;;;;12.60;10.13;;;;;;;;;;5094798;28;20420;-54
2020/12/01 00:46:27;;;;;;;14.80;10.20;;;;;;;;;;5094916;28;20024;-53
2020/12/01 00:48:52;;;;;;;15.57;11.93;;;;;;;;;;5091675;28;20027;-57
2020/12/01 00:51:18;;;;;;;13.43;10.43;;;;;;;;;;5094932;28;20012;-56
2020/12/01 00:53:43;;;;;;;17.73;10.43;;;;;;;;;;5094414;28;20024;-54
2020/12/01 00:56:09;;;;;;;16.00;11.60;;;;;;;;;;5094671;28;20469;-55
2020/12/01 00:58:34;;;;;;;15.37;10.93;;;;;;;;;;5090905;28;20035;-53
2020/12/01 01:00:59;;;;;;;16.77;13.57;;;;;;;;;;5094541;28;20048;-56
2020/12/01 01:03:24;;;;;;;14.33;12.33;;;;;;;;;;5094406;28;20102;-52
2020/12/01 01:05:50;;;;;;;16.63;10.83;;;;;;;;;;5094281;28;20128;-55
2020/12/01 01:08:15;;;;;;;17.37;13.20;;;;;;;;;;5085329;28;20350;-56
2020/12/01 01:10:40;;;;;;;15.37;12.50;;;;;;;;;;5091507;28;20557;-55
2020/12/01 01:13:06;;;;;;;19.60;13.13;;;;;;;;;;5094046;28;20016;-56
2020/12/01 01:15:32;;;;;;;18.43;12.93;;;;;;;;;;5094253;28;20028;-55
2020/12/01 01:17:58;;;;;;;16.70;12.43;;;;;;;;;;5083986;28;20029;-55
2020/12/01 01:20:23;;;;;;;18.43;13.40;;;;;;;;;;5092319;28;20489;-56
2020/12/01 01:22:49;;;;;;;15.43;11.33;;;;;;;;;;5092361;28;20089;-56
2020/12/01 01:25:14;;;;;;;19.17;12.43;;;;;;;;;;5089084;28;20016;-53
2020/12/01 01:27:39;;;;;;;18.63;13.63;;;;;;;;;;5093684;28;20024;-55
2020/12/01 01:30:05;;;;;;;18.13;12.17;;;;;;;;;;5085873;28;20375;-54
2020/12/01 01:32:30;;;;;;;17.83;12.83;;;;;;;;;;5094126;28;20093;-53
2020/12/01 01:34:55;;;;;;;16.80;12.60;;;;;;;;;;5093404;28;20028;-54
2020/12/01 01:37:21;;;;;;;16.10;11.47;;;;;;;;;;5091700;28;20459;-53
2020/12/01 01:39:46;;;;;;;15.77;12.43;;;;;;;;;;5089355;28;20027;-55
2020/12/01 01:42:11;;;;;;;16.33;9.90;;;;;;;;;;5093721;28;20035;-51
2020/12/01 01:44:36;;;;;;;16.83;11.30;;;;;;;;;;5093744;28;20090;-55
2020/12/01 01:47:12;;;;;;;16.17;11.63;;;;;;;;;;5093625;28;20028;-52
2020/12/01 01:49:39;;;;;;;19.23;12.27;;;;;;;;;;5083646;28;20790;-54
2020/12/01 01:52:10;;;;;;;17.83;12.37;;;;;;;;;;5093135;28;20024;-54
2020/12/01 01:54:35;;;;;;;14.77;10.60;;;;;;;;;;5093212;28;20019;-53
2020/12/01 01:57:02;;;;;;;15.20;11.50;;;;;;;;;;5093129;28;20205;-56
2020/12/01 01:59:28;;;;;;;15.87;11.60;;;;;;;;;;5090176;28;20062;-57
2020/12/01 02:01:54;;;;;;;16.80;10.30;;;;;;;;;;5089695;28;20050;-51
2020/12/01 02:04:19;;;;;;;14.33;11.03;;;;;;;;;;5093244;28;20016;-53
2020/12/01 02:06:50;;;;;;;13.10;8.23;;;;;;;;;;5088995;28;20069;-51
2020/12/01 02:09:17;;;;;;;14.53;10.63;;;;;;;;;;5090125;28;20118;-56
2020/12/01 02:11:43;;;;;;;13.60;9.57;;;;;;;;;;5093905;28;20028;-54
2020/12/01 02:14:22;;;;;;;16.67;10.47;;;;;;;;;;5093183;28;20051;-56
2020/12/01 02:16:49;;;;;;;15.67;11.67;;;;;;;;;;5091396;28;20470;-53
2020/12/01 02:19:18;;;;;;;15.60;10.73;;;;;;;;;;5089808;28;20024;-54
2020/12/01 02:21:43;;;;;;;16.43;10.90;;;;;;;;;;5092843;28;20040;-55
2020/12/01 02:24:11;;;;;;;17.97;12.00;;;;;;;;;;5092929;28;20026;-53
2020/12/01 02:26:36;;;;;;;17.03;12.13;;;;;;;;;;5092907;28;20031;-54
2020/12/01 02:29:03;;;;;;;16.03;11.03;;;;;;;;;;5084837;28;20067;-56
2020/12/01 02:31:28;;;;;;;15.07;11.00;;;;;;;;;;5092265;28;20023;-51
2020/12/01 02:33:53;;;;;;;17.33;12.37;;;;;;;;;;5093068;28;20024;-54
2020/12/01 02:36:18;;;;;;;18.63;11.73;;;;;;;;;;5087099;28;20027;-52
2020/12/01 02:38:43;;;;;;;17.03;11.37;;;;;;;;;;5089041;28;20030;-56
2020/12/01 02:41:09;;;;;;;16.80;12.27;;;;;;;;;;5091938;28;20016;-53
2020/12/01 02:43:34;;;;;;;17.23;11.33;;;;;;;;;;5092542;28;20028;-57
2020/12/01 02:46:00;;;;;;;16.90;11.80;;;;;;;;;;5092077;28;20016;-55
2020/12/01 02:48:25;;;;;;;16.50;11.73;;;;;;;;;;5089459;28;20012;-49
2020/12/01 02:50:50;;;;;;;16.00;11.53;;;;;;;;;;5090954;28;20012;-53
2020/12/01 02:53:15;;;;;;;15.53;10.30;;;;;;;;;;5092318;28;20055;-52
2020/12/01 02:55:40;;;;;;;17.27;10.77;;;;;;;;;;5092559;28;20381;-54
2020/12/01 02:58:06;;;;;;;15.67;10.97;;;;;;;;;;5089291;28;20328;-49
2020/12/01 03:00:31;;;;;;;13.90;9.80;;;;;;;;;;5083711;28;20016;-56
2020/12/01 03:02:56;;;;;;;15.10;9.57;;;;;;;;;;5092589;28;20016;-55
2020/12/01 03:05:22;;;;;;;14.53;9.83;;;;;;;;;;5092342;28;20387;-54
2020/12/01 03:07:47;;;;;;;16.20;9.50;;;;;;;;;;5092023;28;20016;-55
2020/12/01 03:10:12;;;;;;;16.60;10.27;;;;;;;;;;5089494;28;20012;-55
2020/12/01 03:12:37;;;;;;;15.57;10.37;;;;;;;;;;5092254;28;20020;-54
2020/12/01 03:15:08;;;;;;;17.37;10.80;;;;;;;;;;5085541;28;20078;-56
2020/12/01 03:17:33;;;;;;;14.83;10.47;;;;;;;;;;5090737;28;20276;-54
2020/12/01 03:19:59;;;;;;;17.83;10.30;;;;;;;;;;5089140;28;20012;-54
2020/12/01 03:22:24;;;;;;;15.40;10.57;;;;;;;;;;5091590;28;20040;-57
2020/12/01 03:24:49;;;;;;;17.17;11.23;;;;;;;;;;5091975;28;20012;-54
2020/12/01 03:27:14;;;;;;;15.50;10.40;;;;;;;;;;5092013;28;20014;-55
2020/12/01 03:29:39;;;;;;;15.23;9.97;;;;;;;;;;5088943;28;20048;-56
2020/12/01 03:32:05;;;;;;;15.50;10.57;;;;;;;;;;5091745;28;20026;-56
2020/12/01 03:34:30;;;;;;;13.43;9.83;;;;;;;;;;5092095;28;20035;-56
2020/12/01 03:36:55;;;;;;;13.53;8.93;;;;;;;;;;5091640;28;20044;-55
2020/12/01 03:39:20;;;;;;;12.40;9.07;;;;;;;;;;5088834;28;20008;-54
2020/12/01 03:41:45;;;;;;;10.23;7.90;;;;;;;;;;5091402;28;20016;-56
2020/12/01 03:44:11;;;;;;;10.17;7.10;;;;;;;;;;5093723;28;20074;-52
2020/12/01 03:46:36;;;;;;;13.10;10.07;;;;;;;;;;5096222;28;20058;-52
2020/12/01 03:49:01;;;;;;;12.87;9.37;;;;;;;;;;5092683;28;20012;-55
2020/12/01 03:51:27;;;;;;;13.73;10.67;;;;;;;;;;5096039;28;20020;-53
2020/12/01 03:53:52;;;;;;;14.07;9.90;;;;;;;;;;5095335;28;20047;-55
2020/12/01 03:56:18;;;;;;;14.43;10.53;;;;;;;;;;5096043;28;20024;-54
2020/12/01 03:58:43;;;;;;;14.73;9.93;;;;;;;;;;5092904;28;20035;-53
2020/12/01 04:01:08;;;;;;;13.00;8.80;;;;;;;;;;5095245;28;20024;-54
2020/12/01 04:03:34;;;;;;;13.90;9.50;;;;;;;;;;5095608;28;20040;-55
2020/12/01 04:05:59;;;;;;;15.13;11.30;;;;;;;;;;5094940;28;20405;-55
2020/12/01 04:08:24;;;;;;;14.00;11.27;;;;;;;;;;5091915;28;20020;-54
2020/12/01 04:10:49;;;;;;;14.60;12.70;;;;;;;;;;5091466;28;20104;-55
2020/12/01 04:13:15;;;;;;;13.80;10.57;;;;;;;;;;5095467;28;20032;-56
2020/12/01 04:15:40;;;;;;;13.33;7.97;;;;;;;;;;5093629;28;20063;-54
2020/12/01 04:18:05;;;;;;;12.57;9.83;;;;;;;;;;5092930;28;20048;-56
2020/12/01 04:20:30;;;;;;;15.10;11.10;;;;;;;;;;5094810;28;20031;-54
2020/12/01 04:22:56;;;;;;;14.17;10.50;;;;;;;;;;5094581;28;20077;-54
2020/12/01 04:25:22;;;;;;;15.10;11.60;;;;;;;;;;5093876;28;20020;-53
2020/12/01 04:27:48;;;;;;;17.17;12.10;;;;;;;;;;5094549;28;20363;-56
2020/12/01 04:30:13;;;;;;;14.20;10.07;;;;;;;;;;5088119;28;20019;-55
2020/12/01 04:32:38;;;;;;;15.90;11.43;;;;;;;;;;5094854;28;20081;-54
2020/12/01 04:35:04;;;;;;;15.57;11.97;;;;;;;;;;5093552;28;20031;-55
2020/12/01 04:37:30;;;;;;;14.80;10.43;;;;;;;;;;5094406;28;20032;-54
2020/12/01 04:39:55;;;;;;;17.67;12.30;;;;;;;;;;5091670;28;20023;-55
2020/12/01 04:42:21;;;;;;;16.07;10.43;;;;;;;;;;5095130;28;20031;-55
2020/12/01 04:45:08;;;;;;;15.30;10.20;;;;;;;;;;5093453;28;20016;-55
2020/12/01 04:47:36;;;;;;;14.83;10.10;;;;;;;;;;5094784;28;20020;-55
2020/12/01 04:50:04;;;;;;;14.97;11.07;;;;;;;;;;5091579;28;20016;-56
2020/12/01 04:52:48;;;;;;;16.60;11.53;;;;;;;;;;5094237;28;20028;-55
2020/12/01 04:55:32;;;;;;;16.47;12.03;;;;;;;;;;5088343;28;20039;-57
2020/12/01 04:58:09;;;;;;;14.77;10.17;;;;;;;;;;5093055;28;20023;-54
2020/12/01 05:00:53;;;;;;;17.10;11.17;;;;;;;;;;5093346;28;20379;-51
2020/12/01 05:03:18;;;;;;;15.17;11.20;;;;;;;;;;5094572;28;20021;-53
2020/12/01 05:06:08;;;;;;;15.33;10.93;;;;;;;;;;5091511;28;20016;-54
2020/12/01 05:08:56;;;;;;;13.57;9.87;;;;;;;;;;5091211;28;20043;-56
2020/12/01 05:11:34;;;;;;;14.33;10.23;;;;;;;;;;5088086;28;20078;-55
2020/12/01 05:14:11;;;;;;;14.70;10.53;;;;;;;;;;5094043;28;20028;-57
2020/12/01 05:16:48;;;;;;;18.77;11.30;;;;;;;;;;5094496;28;20039;-56
2020/12/01 05:19:40;;;;;;;15.33;10.03;;;;;;;;;;5083551;28;20090;-56
2020/12/01 05:22:05;;;;;;;15.30;10.10;;;;;;;;;;5089443;28;20419;-57
2020/12/01 05:24:37;;;;;;;16.07;10.73;;;;;;;;;;5094198;28;20044;-57
2020/12/01 05:27:03;;;;;;;16.23;10.60;;;;;;;;;;5093247;28;20419;-55
2020/12/01 05:29:28;;;;;;;15.70;10.17;;;;;;;;;;5084178;28;20077;-55
2020/12/01 05:31:53;;;;;;;20.77;12.10;;;;;;;;;;5092238;28;20024;-56
2020/12/01 05:34:20;;;;;;;16.27;10.87;;;;;;;;;;5093485;28;20016;-55
2020/12/01 05:36:46;;;;;;;16.10;10.10;;;;;;;;;;5092716;28;20046;-55
2020/12/01 05:39:11;;;;;;;17.43;11.33;;;;;;;;;;5088483;28;20016;-56
2020/12/01 05:41:37;;;;;;;17.20;11.37;;;;;;;;;;5093597;28;20501;-52
2020/12/01 05:44:14;;;;;;;19.00;12.23;;;;;;;;;;5093388;28;20016;-55
2020/12/01 05:46:45;;;;;;;18.07;11.97;;;;;;;;;;5085722;28;20016;-53
2020/12/01 05:49:25;;;;;;;16.30;11.60;;;;;;;;;;5090136;28;20012;-53
2020/12/01 05:52:02;;;;;;;18.37;12.13;;;;;;;;;;5093037;28;20024;-51
2020/12/01 05:54:33;;;;;;;17.53;11.37;;;;;;;;;;5093358;28;20158;-52
2020/12/01 05:56:58;;;;;;;19.43;12.07;;;;;;;;;;5092843;28;20016;-55
2020/12/01 05:59:23;;;;;;;19.43;12.87;;;;;;;;;;5089930;28;20018;-54
2020/12/01 06:02:01;;;;;;;19.37;12.57;;;;;;;;;;5092783;28;20037;-55
2020/12/01 06:04:26;;;;;;;20.67;13.33;;;;;;;;;;5092892;28;20018;-53
2020/12/01 06:06:58;;;;;;;20.60;13.13;;;;;;;;;;5091795;28;20012;-56
2020/12/01 06:09:42;;;;;;;19.83;12.90;;;;;;;;;;5088953;28;20031;-55
2020/12/01 06:12:27;;;;;;;17.50;11.97;;;;;;;;;;5087794;28;20185;-51
2020/12/01 06:14:56;;;;;;;17.85;12.20;;;;;;;;;;5072271;28;20040;-54
2020/12/01 06:17:28;;;;;;;19.40;13.13;;;;;;;;;;5081400;28;20063;-52
2020/12/01 06:20:13;;;;;;;21.33;14.23;;;;;;;;;;5079104;28;20055;-56
2020/12/01 06:22:46;;;;;;;20.02;13.43;;;;;;;;;;5089965;28;20063;-57
2020/12/01 06:25:11;;;;;;;19.90;14.10;;;;;;;;;;5091516;28;20024;-55
2020/12/01 06:27:55;;;;;;;19.77;15.03;;;;;;;;;;5091765;28;20016;-54
2020/12/01 06:30:43;;;;;;;16.30;11.07;;;;;;;;;;5086083;28;20091;-55
2020/12/01 06:33:09;;;;;;;17.73;12.37;;;;;;;;;;5075995;28;20035;-54
2020/12/01 06:35:53;;;;;;;13.80;8.63;;;;;;;;;;5092338;28;20046;-55
2020/12/01 06:38:40;;;;;;;15.90;11.97;;;;;;;;;;5081482;28;20015;-52
2020/12/01 06:41:14;;;;;;;15.60;12.37;;;;;;;;;;5091839;28;20514;-53
2020/12/01 06:43:41;;;;;;;15.53;12.10;;;;;;;;;;5092032;28;20023;-55
2020/12/01 06:46:29;;;;;;;15.37;12.03;;;;;;;;;;5084125;28;20036;-53
2020/12/01 06:48:54;;;;;;;15.33;10.67;;;;;;;;;;5080761;28;20376;-52
2020/12/01 06:51:20;;;;;;;14.20;10.87;;;;;;;;;;5091411;28;20141;-54
2020/12/01 06:53:46;;;;;;;17.47;13.37;;;;;;;;;;5089108;28;20020;-54
2020/12/01 06:56:11;;;;;;;21.97;13.90;;;;;;;;;;5090741;28;20485;-57
2020/12/01 06:58:36;;;;;;;18.60;12.27;;;;;;;;;;5089199;28;20091;-57
2020/12/01 07:01:11;;;;;;;18.83;13.73;;;;;;;;;;5091047;28;20008;-55
2020/12/01 07:03:37;;;;;;;17.40;12.38;;;;;;;;;;5085254;28;20579;-56
2020/12/01 07:06:22;;;;;;;18.77;13.27;;;;;;;;;;5092052;28;20031;-51
2020/12/01 07:08:47;;;;;;;18.00;12.97;;;;;;;;;;5085205;28;20048;-56
2020/12/01 07:11:24;;;;;;;17.70;13.37;;;;;;;;;;5092550;28;20020;-53
2020/12/01 07:13:51;;;;;;;18.83;13.10;;;;;;;;;;5092221;28;20024;-54
2020/12/01 07:16:22;;;;;;;18.93;12.60;;;;;;;;;;5091102;28;20035;-56
2020/12/01 07:18:48;;;;;;;17.93;12.47;;;;;;;;;;5080606;28;20479;-57
2020/12/01 07:21:19;;;;;;;20.20;12.43;;;;;;;;;;5090805;28;20023;-53
2020/12/01 07:23:50;;;;;;;17.73;13.33;;;;;;;;;;5091855;28;20498;-52
2020/12/01 07:26:34;;;;;;;17.40;12.60;;;;;;;;;;5092187;28;20020;-55
2020/12/01 07:29:06;;;;;;;17.87;12.07;;;;;;;;;;5082076;28;20016;-53
2020/12/01 07:31:33;;;;;;;17.13;12.83;;;;;;;;;;5092052;28;20023;-55
2020/12/01 07:34:00;;;;;;;19.90;12.80;;;;;;;;;;5092123;28;20028;-52
2020/12/01 07:36:25;;;;;;;19.13;13.20;;;;;;;;;;5092132;28;20028;-55
2020/12/01 07:39:02;;;;;;;17.90;12.50;;;;;;;;;;5086463;28;20481;-51
2020/12/01 07:41:27;;;;;;;19.00;13.70;;;;;;;;;;5092183;28;20091;-55
2020/12/01 07:44:00;;;;;;;17.57;13.07;;;;;;;;;;5091217;28;20113;-53
2020/12/01 07:46:26;;;;;;;17.40;12.70;;;;;;;;;;5092166;28;20056;-53
2020/12/01 07:49:01;;;;;;;16.63;12.13;;;;;;;;;;5087928;28;20039;-53
2020/12/01 07:51:29;;;;;;;18.20;12.20;;;;;;;;;;5087346;28;20020;-55
2020/12/01 07:53:56;;;;;;;19.10;12.80;;;;;;;;;;5091263;28;20507;-53
2020/12/01 07:56:23;;;;;;;17.73;13.03;;;;;;;;;;5090108;28;20028;-54
2020/12/01 07:59:06;;;;;;;17.07;12.37;;;;;;;;;;5088560;28;20470;-53
2020/12/01 08:01:32;;;;;;;16.40;11.67;;;;;;;;;;5091184;28;20431;-56
2020/12/01 08:04:04;;;;;;;15.60;11.17;;;;;;;;;;5091187;28;20043;-56
2020/12/01 08:06:29;;;;;;;17.83;12.77;;;;;;;;;;5088397;28;20020;-52
2020/12/01 08:08:54;;;;;;;15.97;12.37;;;;;;;;;;5087893;28;20104;-54
2020/12/01 08:11:21;;;;;;;17.53;11.90;;;;;;;;;;5092769;28;20018;-57
2020/12/01 08:13:49;;;;;;;17.50;12.10;;;;;;;;;;5086181;28;20107;-57
2020/12/01 08:16:16;;;;;;;17.53;12.60;;;;;;;;;;5085477;28;20035;-54
2020/12/01 08:18:43;;;;;;;15.60;11.27;;;;;;;;;;5087741;28;20082;-55
2020/12/01 08:21:08;;;;;;;18.97;11.80;;;;;;;;;;5091644;28;20482;-55
2020/12/01 08:23:35;;;;;;;15.30;10.80;;;;;;;;;;5088089;28;20120;-56
2020/12/01 08:26:03;;;;;;;15.27;11.37;;;;;;;;;;5090147;28;20027;-57
2020/12/01 08:28:35;;;;;;;15.23;11.13;;;;;;;;;;5088160;28;20039;-55
2020/12/01 08:31:06;;;;;;;16.40;12.03;;;;;;;;;;5088171;28;20024;-56
2020/12/01 08:33:45;;;;;;;14.73;11.10;;;;;;;;;;5094720;28;20043;-54
2020/12/01 08:36:24;;;;;;;15.67;10.80;;;;;;;;;;5093058;28;20058;-57
2020/12/01 08:39:07;;;;;;;16.97;11.63;;;;;;;;;;5083426;28;20020;-57
2020/12/01 08:41:38;;;;;;;16.17;11.43;;;;;;;;;;5092731;28;20024;-56
2020/12/01 08:44:21;;;;;;;16.87;11.20;;;;;;;;;;5095078;28;20065;-57
2020/12/01 08:46:47;;;;;;;19.13;14.20;;;;;;;;;;5094248;28;20024;-54
2020/12/01 08:51:59;;;;;;;17.20;12.63;;;;;;;;;;5094997;28;20035;-56
2020/12/01 08:54:26;;;;;;;17.30;11.67;;;;;;;;;;5094508;28;20031;-53
2020/12/01 08:57:01;;;;;;;15.73;10.87;;;;;;;;;;5094086;28;20029;-50
2020/12/01 08:59:26;;;;;;;17.45;12.50;;;;;;;;;;5087327;28;20023;-56
2020/12/01 09:01:54;;;;;;;16.53;12.00;;;;;;;;;;5094430;28;20123;-55
2020/12/01 09:04:21;;;;;;;18.37;13.80;;;;;;;;;;5094677;28;20024;-54
2020/12/01 09:06:46;;;;;;;17.83;12.07;;;;;;;;;;5094315;28;20386;-54
2020/12/01 09:09:17;;;;;;;17.90;12.50;;;;;;;;;;5091298;28;20047;-53
2020/12/01 09:14:26;;;;;;;17.70;13.17;;;;;;;;;;5094436;28;20031;-54
2020/12/01 09:17:06;;;;;;;18.00;11.90;;;;;;;;;;5092726;28;20056;-56
2020/12/01 09:22:10;;;;;;;17.17;12.63;;;;;;;;;;5094046;28;20170;-57
2020/12/01 09:24:35;;;;;;;16.90;12.10;;;;;;;;;;5094445;28;20539;-57
2020/12/01 09:27:08;;;;;;;13.07;10.00;;;;;;;;;;5093942;28;20103;-54
2020/12/01 09:29:33;;;;;;;16.47;11.17;;;;;;;;;;5083290;28;20020;-58
2020/12/01 09:31:59;;;;;;;16.10;11.00;;;;;;;;;;5093732;28;20023;-51
2020/12/01 09:34:28;;;;;;;13.93;10.47;;;;;;;;;;5092524;28;20023;-55
2020/12/01 09:36:58;;;;;;;15.73;11.70;;;;;;;;;;5093831;28;20013;-52
2020/12/01 09:39:24;;;;;;;15.63;11.03;;;;;;;;;;5090781;28;20020;-54
2020/12/01 09:41:59;;;;;;;16.67;11.57;;;;;;;;;;5093354;28;20020;-57
2020/12/01 09:49:56;;;;;;;15.90;10.67;;;;;;;;;;5016496;28;20017;-57
2020/12/01 09:52:27;;;;;;;14.77;10.77;;;;;;;;;;5016606;28;20072;-54
2020/12/01 09:55:23;;;;;;;13.70;10.60;;;;;;;;;;5019537;28;20030;-57
2020/12/01 09:57:51;;;;;;;13.47;9.80;;;;;;;;;;5020407;28;20029;-57
2020/12/01 10:00:54;;;;;;;14.23;10.17;;;;;;;;;;5023023;28;20348;-54
2020/12/01 10:09:04;;;;;;;14.57;10.33;;;;;;;;;;5016390;28;20093;-56
2020/12/01 10:35:28;;;;;;;11.50;8.50;;;;;;;;;;5092782;28;20146;-51
2020/12/01 10:37:54;;;;;;;11.73;8.57;;;;;;;;;;5091335;28;20016;-54
2020/12/01 10:40:20;;;;;;;12.60;9.77;;;;;;;;;;5090347;28;20484;-57
2020/12/01 10:42:45;;;;;;;13.17;9.43;;;;;;;;;;5092273;28;20067;-57
2020/12/01 10:45:11;;;;;;;19.47;13.17;;;;;;;;;;5091082;28;20043;-52
2020/12/01 10:47:36;;;;;;;24.13;16.83;;;;;;;;;;5090983;28;20498;-55
2020/12/01 10:50:03;;;;;;;23.90;15.83;;;;;;;;;;5089366;28;20072;-56
2020/12/01 10:52:28;;;;;;;24.48;18.98;;;;;;;;;;5090687;28;20063;-56
2020/12/01 10:54:53;;;;;;;23.50;17.03;;;;;;;;;;5087082;28;20051;-56
2020/12/01 10:57:18;;;;;;;23.10;15.77;;;;;;;;;;5091047;28;20542;-53
2020/12/01 10:59:44;;;;;;;23.63;16.95;;;;;;;;;;5089112;28;20024;-56
2020/12/01 11:02:09;;;;;;;24.85;16.05;;;;;;;;;;5092378;28;20099;-58
2020/12/01 11:04:36;;;;;;;22.08;15.35;;;;;;;;;;5083616;28;20020;-57
2020/12/01 11:07:01;;;;;;;25.00;16.63;;;;;;;;;;5085776;28;20042;-56
2020/12/01 11:09:26;;;;;;;27.05;17.25;;;;;;;;;;5087925;28;20352;-56
2020/12/01 11:11:51;;;;;;;22.90;16.02;;;;;;;;;;5092375;28;20016;-54
2020/12/01 11:14:17;;;;;;;24.67;16.35;;;;;;;;;;5092360;28;20021;-57
2020/12/01 11:16:42;;;;;;;20.90;15.35;;;;;;;;;;5092235;28;20019;-57
2020/12/01 11:19:07;;;;;;;22.27;16.50;;;;;;;;;;5089185;28;20440;-57
2020/12/01 11:21:33;;;;;;;24.63;16.80;;;;;;;;;;5092083;28;20040;-57
2020/12/01 11:23:58;;;;;;;26.10;16.88;;;;;;;;;;5091370;28;20036;-55
2020/12/01 11:26:24;;;;;;;24.52;17.83;;;;;;;;;;5091991;28;20107;-56
2020/12/01 11:28:49;;;;;;;25.55;18.00;;;;;;;;;;5088317;28;20190;-56
2020/12/01 11:31:15;;;;;;;23.98;16.75;;;;;;;;;;5091643;28;20019;-56
2020/12/01 11:33:41;;;;;;;24.45;17.17;;;;;;;;;;5091844;28;20034;-55
2020/12/01 11:36:06;;;;;;;22.05;15.75;;;;;;;;;;5092082;28;20032;-56
2020/12/01 11:38:31;;;;;;;24.23;16.40;;;;;;;;;;5087732;28;20390;-55
2020/12/01 11:40:57;;;;;;;25.10;17.05;;;;;;;;;;5091774;28;20020;-54
2020/12/01 11:43:22;;;;;;;26.63;18.07;;;;;;;;;;5090812;28;20572;-54
2020/12/01 11:45:47;;;;;;;24.50;16.27;;;;;;;;;;5091990;28;20020;-54
2020/12/01 11:48:12;;;;;;;27.85;18.38;;;;;;;;;;5088686;28;20016;-55
2020/12/01 11:50:37;;;;;;;25.40;15.75;;;;;;;;;;5091868;28;20024;-52
2020/12/01 11:53:03;;;;;;;22.15;16.08;;;;;;;;;;5091737;28;20020;-56
2020/12/01 11:55:28;;;;;;;23.60;16.23;;;;;;;;;;5092028;28;20020;-55
2020/12/01 11:57:53;;;;;;;23.17;17.10;;;;;;;;;;5089688;28;20027;-56
2020/12/01 12:00:20;;;;;;;23.73;16.65;;;;;;;;;;5089709;28;20478;-54
2020/12/01 12:02:45;;;;;;;24.35;16.58;;;;;;;;;;5091378;28;20073;-52
2020/12/01 12:05:10;;;;;;;23.50;16.48;;;;;;;;;;5093286;28;20107;-54
2020/12/01 12:07:36;;;;;;;23.45;17.05;;;;;;;;;;5095283;28;20024;-54
2020/12/01 12:10:01;;;;;;;23.17;17.25;;;;;;;;;;5090698;28;20019;-55
2020/12/01 12:12:26;;;;;;;24.27;16.60;;;;;;;;;;5095071;28;20031;-54
2020/12/01 12:14:51;;;;;;;20.45;14.70;;;;;;;;;;5095301;28;20492;-57
2020/12/01 12:17:17;;;;;;;22.80;16.55;;;;;;;;;;5095343;28;20016;-52
2020/12/01 12:19:43;;;;;;;25.60;15.80;;;;;;;;;;5091702;28;20094;-57
2020/12/01 12:22:08;;;;;;;23.48;15.85;;;;;;;;;;5094635;28;20048;-55
2020/12/01 12:24:33;;;;;;;23.85;16.30;;;;;;;;;;5095454;28;20163;-51
2020/12/01 12:26:58;;;;;;;25.42;17.23;;;;;;;;;;5094661;28;20008;-56
2020/12/01 12:29:24;;;;;;;28.02;16.85;;;;;;;;;;5092271;28;20024;-57
2020/12/01 12:31:49;;;;;;;22.17;16.42;;;;;;;;;;5095358;28;20015;-52
2020/12/01 12:34:14;;;;;;;24.17;16.92;;;;;;;;;;5095412;28;20469;-55
2020/12/01 12:36:39;;;;;;;25.35;16.85;;;;;;;;;;5094475;28;20382;-56
2020/12/01 12:39:05;;;;;;;24.98;17.45;;;;;;;;;;5091932;28;20034;-56
2020/12/01 12:41:30;;;;;;;29.35;19.88;;;;;;;;;;5093997;28;20035;-57
2020/12/01 12:43:55;;;;;;;24.33;16.83;;;;;;;;;;5094714;28;20019;-58
2020/12/01 12:46:20;;;;;;;27.13;17.95;;;;;;;;;;5094856;28;20012;-56
2020/12/01 12:48:45;;;;;;;23.88;17.38;;;;;;;;;;5091592;28;20012;-57
2020/12/01 12:51:11;;;;;;;27.08;17.95;;;;;;;;;;5094771;28;20016;-55
2020/12/01 12:53:36;;;;;;;26.73;18.17;;;;;;;;;;5094101;28;20031;-56
2020/12/01 12:56:01;;;;;;;24.75;17.00;;;;;;;;;;5092619;28;20031;-57
2020/12/01 12:58:26;;;;;;;27.48;17.67;;;;;;;;;;5087713;28;20019;-52
2020/12/01 13:00:52;;;;;;;26.58;18.33;;;;;;;;;;5094242;28;20031;-56
2020/12/01 13:03:17;;;;;;;26.88;18.00;;;;;;;;;;5089470;28;20100;-56
2020/12/01 13:05:42;;;;;;;24.52;16.92;;;;;;;;;;5094416;28;20478;-55
2020/12/01 13:08:07;;;;;;;24.87;16.83;;;;;;;;;;5091584;28;20597;-57
2020/12/01 13:10:33;;;;;;;26.25;17.90;;;;;;;;;;5093236;28;20474;-56
2020/12/01 13:12:59;;;;;;;30.17;18.70;;;;;;;;;;5093624;28;20059;-55
2020/12/01 13:15:25;;;;;;;27.52;18.70;;;;;;;;;;5093791;28;20024;-54
2020/12/01 13:17:50;;;;;;;26.97;19.37;;;;;;;;;;5093722;28;20028;-56
2020/12/01 13:20:20;;;;;;;24.30;16.40;;;;;;;;;;5087871;28;20039;-56
2020/12/01 13:22:45;;;;;;;25.92;17.25;;;;;;;;;;5089032;28;20044;-55
2020/12/01 13:25:10;;;;;;;24.33;16.30;;;;;;;;;;5093980;28;20023;-54
2020/12/01 13:27:35;;;;;;;26.03;18.43;;;;;;;;;;5093986;28;20020;-53
2020/12/01 13:30:01;;;;;;;27.30;16.23;;;;;;;;;;5090503;28;20016;-48
2020/12/01 13:32:26;;;;;;;25.85;17.02;;;;;;;;;;5091265;28;20141;-55
2020/12/01 13:34:52;;;;;;;26.55;17.90;;;;;;;;;;5093064;28;20020;-54
2020/12/01 13:37:18;;;;;;;26.35;16.85;;;;;;;;;;5093501;28;20482;-52
2020/12/01 13:39:43;;;;;;;28.27;18.40;;;;;;;;;;5090843;28;20030;-54
2020/12/01 13:42:08;;;;;;;27.63;18.27;;;;;;;;;;5092979;28;20024;-55
2020/12/01 13:44:33;;;;;;;26.33;17.23;;;;;;;;;;5093014;28;20116;-56
2020/12/01 13:46:58;;;;;;;23.13;17.43;;;;;;;;;;5092144;28;20463;-53
2020/12/01 13:49:24;;;;;;;26.37;17.60;;;;;;;;;;5090165;28;20015;-54
2020/12/01 13:51:49;;;;;;;25.20;16.87;;;;;;;;;;5093544;28;20444;-54
2020/12/01 13:54:14;;;;;;;25.30;17.50;;;;;;;;;;5093755;28;20066;-53
2020/12/01 13:56:42;;;;;;;24.70;17.03;;;;;;;;;;5093132;28;20393;-55
2020/12/01 13:59:07;;;;;;;27.50;18.43;;;;;;;;;;5090361;28;20070;-56
2020/12/01 14:01:33;;;;;;;28.20;17.90;;;;;;;;;;5092717;28;20043;-54
2020/12/01 14:03:58;;;;;;;29.00;17.90;;;;;;;;;;5092926;28;20031;-55
2020/12/01 14:06:23;;;;;;;27.40;18.93;;;;;;;;;;5093449;28;20019;-55
2020/12/01 14:08:48;;;;;;;28.23;17.83;;;;;;;;;;5089612;28;20416;-51
2020/12/01 14:11:14;;;;;;;24.83;16.47;;;;;;;;;;5094315;28;20451;-56
2020/12/01 14:13:40;;;;;;;30.47;16.80;;;;;;;;;;5093358;28;20020;-55
2020/12/01 14:16:05;;;;;;;26.60;17.40;;;;;;;;;;5092780;28;20072;-57
2020/12/01 14:18:32;;;;;;;26.13;17.27;;;;;;;;;;5090185;28;20105;-56
2020/12/01 14:20:57;;;;;;;26.37;17.33;;;;;;;;;;5092913;28;20054;-55
2020/12/01 14:23:22;;;;;;;27.57;17.87;;;;;;;;;;5091410;28;20079;-55
2020/12/01 14:25:47;;;;;;;27.80;17.03;;;;;;;;;;5092853;28;20016;-56
2020/12/01 14:28:13;;;;;;;27.23;17.53;;;;;;;;;;5088816;28;20184;-51
2020/12/01 14:30:38;;;;;;;31.67;19.83;;;;;;;;;;5092840;28;20020;-56
2020/12/01 14:33:03;;;;;;;29.63;18.57;;;;;;;;;;5091234;28;20048;-52
2020/12/01 14:35:28;;;;;;;29.97;17.70;;;;;;;;;;5092827;28;20020;-55
2020/12/01 14:37:54;;;;;;;31.43;17.30;;;;;;;;;;5091509;28;20024;-58
2020/12/01 14:40:21;;;;;;;28.63;17.97;;;;;;;;;;5090160;28;20026;-57
2020/12/01 14:42:47;;;;;;;27.77;17.87;;;;;;;;;;5085677;28;20016;-56
2020/12/01 14:45:12;;;;;;;29.17;19.27;;;;;;;;;;5080379;28;20039;-52
2020/12/01 14:47:38;;;;;;;25.77;17.13;;;;;;;;;;5089514;28;20027;-53
2020/12/01 14:50:22;;;;;;;30.00;18.17;;;;;;;;;;5083123;28;20095;-52
2020/12/01 14:52:49;;;;;;;28.40;17.20;;;;;;;;;;5089257;28;20499;-51
2020/12/01 14:55:14;;;;;;;28.57;17.47;;;;;;;;;;5092281;28;20023;-52
2020/12/01 14:58:03;;;;;;;26.83;18.20;;;;;;;;;;5091656;28;20444;-55
2020/12/01 15:00:34;;;;;;;29.00;18.03;;;;;;;;;;5065420;28;20032;-51
2020/12/01 15:03:09;;;;;;;29.80;17.97;;;;;;;;;;5086705;28;20051;-51
2020/12/01 15:05:45;;;;;;;27.93;17.97;;;;;;;;;;5091961;28;20133;-52